Time;durP1;ratioP1;P1;durP2;ratioP2;P2;SDS_P1;SDS_P2;PMS_P1;PMS_P2;Temp;Humidity;BMP_temperature;BMP_pressure;BME280_temperature;BME280_humidity;BME280_pressure;Samples;Min_cycle;Max_cycle;Signal;HPM_P1;HPM_P2
2023/04/13 00:00:37;;;;;;;3.15;1.00;;;7.30;99.90;;;;;;5033842;28;20040;-59
2023/04/13 00:03:03;;;;;;;4.18;1.17;;;7.30;99.90;;;;;;5042326;28;20036;-59
2023/04/13 00:05:30;;;;;;;6.85;1.02;;;7.40;99.90;;;;;;5051984;28;20033;-59
2023/04/13 00:07:55;;;;;;;2.17;0.93;;;7.30;99.90;;;;;;5054596;28;20420;-58
2023/04/13 00:10:22;;;;;;;1.42;0.70;;;7.30;99.90;;;;;;5056966;28;20124;-58
2023/04/13 00:12:49;;;;;;;5.28;0.77;;;7.30;99.90;;;;;;5050436;28;20044;-59
2023/04/13 00:15:18;;;;;;;2.08;0.93;;;7.30;99.90;;;;;;5049895;28;20044;-59
2023/04/13 00:17:44;;;;;;;1.95;1.00;;;7.30;99.90;;;;;;5043678;28;20056;-59
2023/04/13 00:20:14;;;;;;;2.05;0.60;;;7.40;99.90;;;;;;5050229;28;20131;-58
2023/04/13 00:22:44;;;;;;;4.10;0.80;;;7.30;99.90;;;;;;5046674;28;20417;-58
2023/04/13 00:25:13;;;;;;;3.42;1.05;;;7.20;99.90;;;;;;5039055;28;20061;-58
2023/04/13 00:27:39;;;;;;;1.55;0.70;;;7.20;99.90;;;;;;5044025;28;20128;-58
2023/04/13 00:30:10;;;;;;;4.32;1.17;;;7.20;99.90;;;;;;5044554;28;20310;-58
2023/04/13 00:32:37;;;;;;;4.05;0.90;;;7.20;99.90;;;;;;5044650;28;20223;-58
2023/04/13 00:35:03;;;;;;;3.38;1.10;;;7.10;99.90;;;;;;5040170;28;20097;-58
2023/04/13 00:37:29;;;;;;;2.97;0.70;;;7.10;99.90;;;;;;5043417;28;20147;-58
2023/04/13 00:39:55;;;;;;;6.43;1.20;;;7.10;99.90;;;;;;5047157;28;20056;-58
2023/04/13 00:42:21;;;;;;;4.97;1.02;;;7.10;99.90;;;;;;5046047;28;20130;-59
2023/04/13 00:44:47;;;;;;;3.28;0.75;;;7.20;99.90;;;;;;5057412;28;20121;-59
2023/04/13 00:47:21;;;;;;;4.63;1.20;;;7.20;99.90;;;;;;5048153;28;20039;-59
2023/04/13 00:49:47;;;;;;;2.53;0.70;;;7.20;99.90;;;;;;5046048;28;20153;-59
2023/04/13 00:52:14;;;;;;;3.03;0.85;;;7.30;99.90;;;;;;5050651;28;20033;-58
2023/04/13 00:54:41;;;;;;;4.07;0.73;;;7.30;99.90;;;;;;5049018;28;20037;-59
2023/04/13 00:57:06;;;;;;;5.30;1.00;;;7.30;99.90;;;;;;5050892;28;20177;-59
2023/04/13 00:59:33;;;;;;;2.22;0.90;;;7.30;99.90;;;;;;5046096;28;20032;-59
2023/04/13 01:02:00;;;;;;;3.95;1.17;;;7.20;99.90;;;;;;5045519;28;20059;-59
2023/04/13 01:04:29;;;;;;;3.47;0.98;;;7.30;99.90;;;;;;5040520;28;20045;-59
2023/04/13 01:07:22;;;;;;;3.50;0.70;;;7.30;99.90;;;;;;5040142;28;20377;-59
2023/04/13 01:10:18;;;;;;;4.97;0.90;;;7.30;99.90;;;;;;5048874;28;20025;-59
2023/04/13 01:13:19;;;;;;;2.75;0.70;;;7.30;99.90;;;;;;5047065;28;20185;-59
2023/04/13 01:16:03;;;;;;;3.03;1.20;;;7.30;99.90;;;;;;5032608;28;20037;-59
2023/04/13 01:18:33;;;;;;;3.08;1.00;;;7.30;99.90;;;;;;5058910;28;20644;-59
2023/04/13 01:21:01;;;;;;;5.03;1.23;;;7.40;99.90;;;;;;5046820;28;20173;-59
2023/04/13 01:23:41;;;;;;;3.13;0.90;;;7.40;99.90;;;;;;5049277;28;20120;-59
2023/04/13 01:26:07;;;;;;;4.05;0.68;;;7.50;99.90;;;;;;5044440;28;20772;-59
2023/04/13 01:28:37;;;;;;;3.10;0.80;;;7.60;99.90;;;;;;5050521;28;20056;-58
2023/04/13 01:31:10;;;;;;;5.57;1.00;;;7.60;99.90;;;;;;5042267;28;20444;-59
2023/04/13 01:33:40;;;;;;;2.03;0.63;;;7.60;99.90;;;;;;5048086;28;20131;-58
2023/04/13 01:36:07;;;;;;;4.60;0.80;;;7.60;99.90;;;;;;5046386;28;20068;-58
2023/04/13 01:38:32;;;;;;;2.13;0.70;;;7.60;99.90;;;;;;5049118;28;20071;-59
2023/04/13 01:40:58;;;;;;;3.03;0.70;;;7.70;99.90;;;;;;5050952;28;20052;-59
2023/04/13 01:43:25;;;;;;;3.97;0.80;;;7.70;99.90;;;;;;5044669;28;20025;-59
2023/04/13 01:46:03;;;;;;;3.10;0.85;;;7.70;99.90;;;;;;5049873;28;20032;-59
2023/04/13 01:48:36;;;;;;;3.65;1.00;;;7.80;99.90;;;;;;5040475;28;20037;-59
2023/04/13 01:51:17;;;;;;;5.90;0.80;;;7.80;99.90;;;;;;5045261;28;20488;-58
2023/04/13 01:53:47;;;;;;;5.28;1.23;;;7.80;99.90;;;;;;5045774;28;20059;-58
2023/04/13 01:56:18;;;;;;;4.05;0.90;;;7.80;99.90;;;;;;5048195;28;20041;-58
2023/04/13 01:58:48;;;;;;;4.03;0.70;;;7.80;99.90;;;;;;5051331;28;20181;-59
2023/04/13 02:01:14;;;;;;;4.97;1.10;;;7.80;99.90;;;;;;5045472;28;20087;-58
2023/04/13 02:03:42;;;;;;;3.75;0.82;;;7.80;99.90;;;;;;5039224;28;20041;-59
2023/04/13 02:06:08;;;;;;;3.58;0.80;;;7.80;99.90;;;;;;5047349;28;20284;-58
2023/04/13 02:08:35;;;;;;;2.47;0.70;;;7.80;99.90;;;;;;5050663;28;20048;-58
2023/04/13 02:11:02;;;;;;;3.15;0.70;;;7.60;99.90;;;;;;5048994;28;20424;-58
2023/04/13 02:13:29;;;;;;;3.47;0.90;;;7.70;99.90;;;;;;5045039;28;20044;-58
2023/04/13 02:15:54;;;;;;;2.90;0.77;;;7.70;99.90;;;;;;5044261;28;20114;-58
2023/04/13 02:18:22;;;;;;;3.20;0.93;;;7.70;99.90;;;;;;5052910;28;20040;-58
2023/04/13 02:20:59;;;;;;;2.40;0.82;;;7.70;99.90;;;;;;5049135;28;20378;-60
2023/04/13 02:23:25;;;;;;;6.35;1.17;;;7.70;99.90;;;;;;5048654;28;20287;-58
2023/04/13 02:25:51;;;;;;;3.95;0.90;;;7.80;99.90;;;;;;5054906;28;20037;-59
2023/04/13 02:28:16;;;;;;;3.42;0.85;;;7.80;99.90;;;;;;5047155;28;20143;-58
2023/04/13 02:30:42;;;;;;;2.47;0.90;;;7.70;99.90;;;;;;5039989;28;20168;-58
2023/04/13 02:33:08;;;;;;;6.95;0.93;;;7.80;99.90;;;;;;5047341;28;20068;-59
2023/04/13 02:35:37;;;;;;;5.80;1.00;;;7.80;99.90;;;;;;5054007;28;20198;-59
2023/04/13 02:38:06;;;;;;;5.00;1.10;;;7.90;99.90;;;;;;5048125;28;20059;-58
2023/04/13 02:40:31;;;;;;;5.70;0.95;;;7.90;99.90;;;;;;5047751;28;20029;-58
2023/04/13 02:42:58;;;;;;;5.03;1.30;;;7.90;99.90;;;;;;5069848;28;20045;-59
2023/04/13 02:45:25;;;;;;;3.30;0.90;;;8.00;99.90;;;;;;5053888;28;20041;-59
2023/04/13 02:47:51;;;;;;;6.68;1.13;;;8.00;99.90;;;;;;5053560;28;20190;-59
2023/04/13 02:50:17;;;;;;;5.55;0.95;;;8.00;99.90;;;;;;5038217;28;20755;-58
2023/04/13 02:52:42;;;;;;;4.68;1.08;;;8.00;99.90;;;;;;5045284;28;20106;-59
2023/04/13 02:55:08;;;;;;;5.78;1.40;;;8.10;99.90;;;;;;5051649;28;20205;-59
2023/04/13 02:57:34;;;;;;;6.15;1.02;;;8.00;99.90;;;;;;5042676;28;20117;-58
2023/04/13 02:59:59;;;;;;;3.80;1.10;;;8.00;99.90;;;;;;5054301;28;20064;-59
2023/04/13 03:02:26;;;;;;;4.47;1.30;;;8.10;99.90;;;;;;5046024;28;20128;-58
2023/04/13 03:04:53;;;;;;;5.90;0.80;;;8.00;99.90;;;;;;5048596;28;20069;-58
2023/04/13 03:07:19;;;;;;;4.47;1.00;;;8.00;99.90;;;;;;5056339;28;20136;-59
2023/04/13 03:09:46;;;;;;;5.85;1.30;;;8.00;99.90;;;;;;5043182;28;20299;-58
2023/04/13 03:12:11;;;;;;;4.28;0.88;;;8.00;99.90;;;;;;5048411;28;20518;-58
2023/04/13 03:14:37;;;;;;;2.85;0.95;;;7.90;99.90;;;;;;5043176;28;20103;-58
2023/04/13 03:17:03;;;;;;;3.50;0.90;;;7.90;99.90;;;;;;5047352;28;20029;-58
2023/04/13 03:19:29;;;;;;;3.25;0.70;;;7.90;99.90;;;;;;5046703;28;20033;-58
2023/04/13 03:21:55;;;;;;;4.78;0.88;;;7.80;99.90;;;;;;5052052;28;20086;-58
2023/04/13 03:24:21;;;;;;;7.40;1.00;;;7.80;99.90;;;;;;5057941;28;21139;-59
2023/04/13 03:26:46;;;;;;;2.35;0.77;;;7.80;99.90;;;;;;5043449;28;20064;-58
2023/04/13 03:29:12;;;;;;;2.78;0.75;;;7.90;99.90;;;;;;5035525;28;20061;-59
2023/04/13 03:31:38;;;;;;;5.35;0.88;;;7.90;99.90;;;;;;5044186;28;20112;-59
2023/04/13 03:34:03;;;;;;;4.15;0.93;;;7.90;99.90;;;;;;5046847;28;20115;-58
2023/04/13 03:36:30;;;;;;;3.92;0.90;;;7.90;99.90;;;;;;5046373;28;20048;-58
2023/04/13 03:38:56;;;;;;;3.15;1.00;;;7.90;99.90;;;;;;5043029;28;20441;-58
2023/04/13 03:41:22;;;;;;;3.50;0.90;;;7.80;99.90;;;;;;5039390;28;20119;-58
2023/04/13 03:43:48;;;;;;;3.20;0.80;;;7.80;99.90;;;;;;5049566;28;20063;-58
2023/04/13 03:46:14;;;;;;;2.90;0.88;;;7.70;99.90;;;;;;5044128;28;20044;-58
2023/04/13 03:48:40;;;;;;;2.00;0.95;;;7.80;99.90;;;;;;5054571;28;20041;-58
2023/04/13 03:51:06;;;;;;;4.05;0.85;;;7.70;99.90;;;;;;5044699;28;20396;-58
2023/04/13 03:53:35;;;;;;;3.72;0.90;;;7.80;99.90;;;;;;5041420;28;20128;-58
2023/04/13 03:56:00;;;;;;;4.70;0.90;;;7.80;99.90;;;;;;5039359;28;20052;-58
2023/04/13 03:58:26;;;;;;;4.32;0.90;;;7.80;99.90;;;;;;5047684;28;20037;-58
2023/04/13 04:00:51;;;;;;;2.60;0.95;;;7.90;99.90;;;;;;5051573;28;20039;-58
2023/04/13 04:03:17;;;;;;;5.90;1.20;;;7.90;99.90;;;;;;5043742;28;20033;-58
2023/04/13 04:05:43;;;;;;;2.90;0.85;;;7.90;99.90;;;;;;5046548;28;20033;-59
2023/04/13 04:08:09;;;;;;;5.43;1.10;;;7.90;99.90;;;;;;5051547;28;20041;-58
2023/04/13 04:10:35;;;;;;;3.13;0.90;;;7.80;99.90;;;;;;5051279;28;20033;-58
2023/04/13 04:13:00;;;;;;;3.22;1.10;;;7.80;99.90;;;;;;5051470;28;20056;-58
2023/04/13 04:15:26;;;;;;;5.35;1.10;;;7.80;99.90;;;;;;5050554;28;20033;-58
2023/04/13 04:17:51;;;;;;;3.40;0.95;;;8.00;99.90;;;;;;5042897;28;20063;-59
2023/04/13 04:20:17;;;;;;;4.82;1.08;;;7.90;99.90;;;;;;5051742;28;20044;-58
2023/04/13 04:22:46;;;;;;;2.75;0.80;;;7.80;99.90;;;;;;5043228;28;20072;-58
2023/04/13 04:25:16;;;;;;;2.90;0.98;;;7.90;99.90;;;;;;5047205;28;20081;-58
2023/04/13 04:27:45;;;;;;;3.58;1.10;;;7.90;99.90;;;;;;5050442;28;20259;-58
2023/04/13 04:30:12;;;;;;;5.38;1.20;;;7.90;99.90;;;;;;5040730;28;20037;-59
2023/04/13 04:32:40;;;;;;;4.43;1.35;;;8.00;99.90;;;;;;5041752;28;20068;-59
2023/04/13 04:35:07;;;;;;;5.18;1.50;;;7.90;99.90;;;;;;5045084;28;20055;-59
2023/04/13 04:37:36;;;;;;;5.05;1.10;;;7.90;99.90;;;;;;5043485;28;20040;-58
2023/04/13 04:40:06;;;;;;;4.03;1.38;;;7.90;99.90;;;;;;5048810;28;20151;-57
2023/04/13 04:42:32;;;;;;;6.18;1.10;;;7.90;99.90;;;;;;5045293;28;20091;-58
2023/04/13 04:44:58;;;;;;;3.85;1.10;;;7.80;99.90;;;;;;5040429;28;20037;-58
2023/04/13 04:47:23;;;;;;;3.65;1.30;;;7.90;99.90;;;;;;5042652;28;20054;-58
2023/04/13 04:49:49;;;;;;;4.75;1.45;;;8.00;99.90;;;;;;5066763;28;20041;-58
2023/04/13 04:52:15;;;;;;;4.03;1.50;;;8.10;99.90;;;;;;5038503;28;20056;-59
2023/04/13 04:54:40;;;;;;;4.03;1.23;;;7.90;99.90;;;;;;5037000;28;20063;-58
2023/04/13 04:57:09;;;;;;;4.15;2.05;;;7.90;99.90;;;;;;5047299;28;20037;-58
2023/04/13 04:59:35;;;;;;;4.60;1.58;;;7.80;99.90;;;;;;5039499;28;20043;-58
2023/04/13 05:02:01;;;;;;;5.63;1.55;;;7.80;99.90;;;;;;5050530;28;20062;-58
2023/04/13 05:04:26;;;;;;;4.72;1.55;;;7.80;99.90;;;;;;5052547;28;20028;-58
2023/04/13 05:06:52;;;;;;;5.07;1.75;;;7.90;99.90;;;;;;5045232;28;20049;-58
2023/04/13 05:09:19;;;;;;;4.40;1.48;;;8.00;99.90;;;;;;5044443;28;20033;-58
2023/04/13 05:11:45;;;;;;;6.68;2.08;;;8.00;99.90;;;;;;5042753;28;20052;-58
2023/04/13 05:14:10;;;;;;;8.75;1.70;;;7.90;99.90;;;;;;5049879;28;20040;-59
2023/04/13 05:16:36;;;;;;;5.30;1.92;;;7.90;99.90;;;;;;5045064;28;20032;-58
2023/04/13 05:19:04;;;;;;;3.47;1.70;;;8.00;99.90;;;;;;5043668;28;20123;-57
2023/04/13 05:21:29;;;;;;;6.15;2.00;;;8.00;99.90;;;;;;5042839;28;20393;-58
2023/04/13 05:23:55;;;;;;;6.40;2.05;;;8.10;99.90;;;;;;5046688;28;20043;-58
2023/04/13 05:26:21;;;;;;;4.85;1.95;;;8.00;99.90;;;;;;5041660;28;20037;-58
2023/04/13 05:28:46;;;;;;;7.68;2.05;;;8.00;99.90;;;;;;5045864;28;20380;-58
2023/04/13 05:31:12;;;;;;;7.10;1.98;;;8.00;99.90;;;;;;5039593;28;20128;-59
2023/04/13 05:33:38;;;;;;;5.65;2.15;;;8.10;99.90;;;;;;5050167;28;20043;-58
2023/04/13 05:36:04;;;;;;;5.55;1.95;;;8.20;99.90;;;;;;5044073;28;20048;-60
2023/04/13 05:38:30;;;;;;;5.20;2.38;;;8.20;99.90;;;;;;5046483;28;20029;-60
2023/04/13 05:40:57;;;;;;;8.43;2.17;;;8.30;99.90;;;;;;5045743;28;20029;-61
2023/04/13 05:43:23;;;;;;;6.07;2.00;;;8.30;99.90;;;;;;5036948;28;20099;-60
2023/04/13 05:45:48;;;;;;;9.18;2.00;;;8.30;99.90;;;;;;5040033;28;20392;-60
2023/04/13 05:48:14;;;;;;;5.93;2.10;;;8.40;99.90;;;;;;5038607;28;20489;-60
2023/04/13 05:50:40;;;;;;;6.50;2.05;;;8.40;99.90;;;;;;5042386;28;20075;-60
2023/04/13 05:53:06;;;;;;;5.43;2.10;;;8.40;99.90;;;;;;5039504;28;20148;-60
2023/04/13 05:55:32;;;;;;;6.10;2.38;;;8.40;99.90;;;;;;5041057;28;20477;-61
2023/04/13 05:58:02;;;;;;;6.07;1.70;;;8.20;99.90;;;;;;5041072;28;20518;-61
2023/04/13 06:00:28;;;;;;;4.88;1.92;;;8.10;99.90;;;;;;5040129;28;20468;-61
2023/04/13 06:02:54;;;;;;;4.32;1.95;;;8.30;99.90;;;;;;5041931;28;20040;-60
2023/04/13 06:05:21;;;;;;;5.82;2.15;;;8.40;99.90;;;;;;5041470;28;20504;-60
2023/04/13 06:07:46;;;;;;;6.68;1.83;;;8.40;99.90;;;;;;5048640;28;20443;-60
2023/04/13 06:10:16;;;;;;;5.32;1.95;;;8.40;99.90;;;;;;5050533;28;20048;-60
2023/04/13 06:12:42;;;;;;;5.57;2.40;;;8.60;99.90;;;;;;5047661;28;20060;-60
2023/04/13 06:15:08;;;;;;;5.15;1.98;;;8.50;99.90;;;;;;5048101;28;20115;-59
2023/04/13 06:17:34;;;;;;;4.60;2.00;;;8.60;99.90;;;;;;5053139;28;20039;-60
2023/04/13 06:20:00;;;;;;;11.05;1.88;;;8.60;99.90;;;;;;5039347;28;20031;-60
2023/04/13 06:22:26;;;;;;;4.47;2.13;;;8.80;99.90;;;;;;5043211;28;20028;-60
2023/04/13 06:24:51;;;;;;;4.25;2.20;;;8.90;99.90;;;;;;5045974;28;20036;-60
2023/04/13 06:27:17;;;;;;;3.17;1.60;;;8.90;99.90;;;;;;5045437;28;20035;-60
2023/04/13 06:29:44;;;;;;;4.10;2.10;;;9.00;99.90;;;;;;5039148;28;20374;-61
2023/04/13 06:32:10;;;;;;;4.80;1.92;;;9.00;99.90;;;;;;5045051;28;20450;-60
2023/04/13 06:34:36;;;;;;;6.82;1.80;;;9.10;99.90;;;;;;5046851;28;20449;-60
2023/04/13 06:37:02;;;;;;;5.00;1.95;;;9.00;99.90;;;;;;5044237;28;20044;-60
2023/04/13 06:39:28;;;;;;;6.03;1.85;;;9.10;99.90;;;;;;5041140;28;20057;-60
2023/04/13 06:41:55;;;;;;;5.28;2.00;;;9.00;99.90;;;;;;5044358;28;20513;-60
2023/04/13 06:44:20;;;;;;;4.97;1.85;;;9.00;99.90;;;;;;5044842;28;20044;-60
2023/04/13 06:46:46;;;;;;;6.00;1.48;;;9.00;99.90;;;;;;5047042;28;20384;-61
2023/04/13 06:49:12;;;;;;;3.10;1.17;;;9.10;99.90;;;;;;5045763;28;20120;-60
2023/04/13 06:51:38;;;;;;;3.13;1.33;;;9.10;99.90;;;;;;5038474;28;20041;-60
2023/04/13 06:54:03;;;;;;;4.55;1.50;;;9.20;99.90;;;;;;5045146;28;20102;-60
2023/04/13 06:56:29;;;;;;;4.95;1.40;;;9.20;99.90;;;;;;5045565;28;20504;-60
2023/04/13 06:58:59;;;;;;;4.85;1.45;;;9.40;99.90;;;;;;5042275;28;20519;-61
2023/04/13 07:01:28;;;;;;;2.90;1.15;;;9.60;99.90;;;;;;5045151;28;20036;-60
2023/04/13 07:03:53;;;;;;;6.13;1.30;;;9.70;99.90;;;;;;5056143;28;20457;-60
2023/04/13 07:06:20;;;;;;;3.80;1.20;;;9.70;99.90;;;;;;5043793;28;20059;-60
2023/04/13 07:08:46;;;;;;;3.50;1.48;;;9.60;99.90;;;;;;5049942;28;20110;-60
2023/04/13 07:11:12;;;;;;;4.85;1.35;;;9.60;99.90;;;;;;5050143;28;20403;-61
2023/04/13 07:13:38;;;;;;;4.20;1.33;;;9.50;99.90;;;;;;5045019;28;20044;-60
2023/04/13 07:16:04;;;;;;;3.90;1.45;;;9.40;99.90;;;;;;5049561;28;20036;-60
2023/04/13 07:18:30;;;;;;;4.88;1.30;;;9.50;99.90;;;;;;5046268;28;20115;-60
2023/04/13 07:20:56;;;;;;;3.28;1.40;;;9.40;99.90;;;;;;5044651;28;20060;-60
2023/04/13 07:23:22;;;;;;;4.10;1.42;;;9.40;99.90;;;;;;5042736;28;20099;-60
2023/04/13 07:25:47;;;;;;;7.43;1.33;;;9.40;99.90;;;;;;5046471;28;20045;-60
2023/04/13 07:28:13;;;;;;;4.65;1.38;;;9.40;99.90;;;;;;5048470;28;20067;-60
2023/04/13 07:30:43;;;;;;;4.32;1.20;;;9.30;99.90;;;;;;5041263;28;20114;-60
2023/04/13 07:33:08;;;;;;;3.83;1.20;;;9.40;99.90;;;;;;5035835;28;20505;-60
2023/04/13 07:35:36;;;;;;;7.00;1.52;;;9.30;99.90;;;;;;5041266;28;20033;-60
2023/04/13 07:38:01;;;;;;;6.18;1.80;;;9.40;99.90;;;;;;5042499;28;20059;-60
2023/04/13 07:40:27;;;;;;;5.22;1.67;;;9.30;99.90;;;;;;5048946;28;20339;-60
2023/04/13 07:42:53;;;;;;;4.22;1.35;;;9.40;99.90;;;;;;5041987;28;20037;-60
2023/04/13 07:45:21;;;;;;;5.30;1.67;;;9.30;99.90;;;;;;5038312;28;20502;-60
2023/04/13 07:47:47;;;;;;;3.10;1.42;;;9.30;99.90;;;;;;5045895;28;20520;-60
2023/04/13 07:50:13;;;;;;;5.90;1.15;;;9.40;99.90;;;;;;5041215;28;20049;-60
2023/04/13 07:52:39;;;;;;;5.97;1.65;;;9.60;99.90;;;;;;5042826;28;20036;-60
2023/04/13 07:55:06;;;;;;;6.93;1.70;;;9.60;99.90;;;;;;5039953;28;20056;-60
2023/04/13 07:57:32;;;;;;;4.45;1.50;;;9.60;99.90;;;;;;5036435;28;20106;-60
2023/04/13 07:59:57;;;;;;;6.25;1.55;;;9.70;99.90;;;;;;5042383;28;20037;-60
2023/04/13 08:02:24;;;;;;;7.22;2.15;;;9.60;99.90;;;;;;5037986;28;20084;-60
2023/04/13 08:04:51;;;;;;;7.57;1.60;;;9.60;99.90;;;;;;5040914;28;20543;-60
2023/04/13 08:07:17;;;;;;;6.25;2.15;;;9.70;99.90;;;;;;5041399;28;20449;-60
2023/04/13 08:09:47;;;;;;;7.60;1.80;;;9.80;99.90;;;;;;5041205;28;20185;-60
2023/04/13 08:12:13;;;;;;;7.28;3.92;;;9.80;99.90;;;;;;5036592;28;20037;-60
2023/04/13 08:14:38;;;;;;;8.38;3.00;;;9.70;99.90;;;;;;5039170;28;20082;-60
2023/04/13 08:17:04;;;;;;;5.55;1.67;;;9.70;99.90;;;;;;5038550;28;20496;-60
2023/04/13 08:19:31;;;;;;;6.70;1.98;;;9.70;99.90;;;;;;5039373;28;20404;-60
2023/04/13 08:21:57;;;;;;;4.85;1.88;;;9.70;99.90;;;;;;5040066;28;20709;-60
2023/04/13 08:24:23;;;;;;;8.40;2.03;;;9.80;99.90;;;;;;5043118;28;20037;-60
2023/04/13 08:26:51;;;;;;;9.38;1.73;;;9.80;99.90;;;;;;5038563;28;20449;-60
2023/04/13 08:29:16;;;;;;;9.98;2.03;;;9.90;99.90;;;;;;5036205;28;20060;-60
2023/04/13 08:31:42;;;;;;;7.65;2.10;;;9.90;99.90;;;;;;5043071;28;20473;-61
2023/04/13 08:34:09;;;;;;;4.32;1.70;;;9.90;99.90;;;;;;5042942;28;20104;-60
2023/04/13 08:36:36;;;;;;;8.32;1.45;;;9.90;99.90;;;;;;5044042;28;20090;-60
2023/04/13 08:39:04;;;;;;;8.60;1.83;;;9.90;99.90;;;;;;5042948;28;20461;-60
2023/04/13 08:41:32;;;;;;;9.23;2.10;;;10.00;99.90;;;;;;5041671;28;20076;-60
2023/04/13 08:44:04;;;;;;;8.63;1.95;;;10.00;99.90;;;;;;5049391;28;20102;-60
2023/04/13 08:46:30;;;;;;;8.82;1.90;;;10.10;99.90;;;;;;5050313;28;20029;-60
2023/04/13 08:48:57;;;;;;;6.53;1.75;;;10.20;99.90;;;;;;5047052;28;20095;-59
2023/04/13 08:51:25;;;;;;;10.18;2.40;;;10.20;99.90;;;;;;5044887;28;20033;-60
2023/04/13 08:53:57;;;;;;;8.07;1.90;;;10.20;99.90;;;;;;5043443;28;20357;-60
2023/04/13 08:56:24;;;;;;;8.20;2.28;;;10.30;99.90;;;;;;5043968;28;20124;-60
2023/04/13 08:58:55;;;;;;;7.15;1.90;;;10.30;99.90;;;;;;5042438;28;20550;-60
2023/04/13 09:01:22;;;;;;;7.93;2.10;;;10.30;99.90;;;;;;5042826;28;20037;-60
2023/04/13 09:03:54;;;;;;;7.57;2.00;;;10.40;99.90;;;;;;5036348;28;20040;-60
2023/04/13 09:06:26;;;;;;;9.80;2.20;;;10.50;99.90;;;;;;5040959;28;20041;-60
2023/04/13 09:08:55;;;;;;;8.48;2.28;;;10.70;99.90;;;;;;5041438;28;20033;-60
2023/04/13 09:11:21;;;;;;;7.90;2.33;;;10.90;99.90;;;;;;5044819;28;20075;-60
2023/04/13 09:13:51;;;;;;;11.30;2.10;;;11.10;99.90;;;;;;5045447;28;20060;-60
2023/04/13 09:16:17;;;;;;;9.77;2.00;;;11.30;99.90;;;;;;5048098;28;20049;-60
2023/04/13 09:18:56;;;;;;;6.65;2.03;;;11.50;99.90;;;;;;5048812;28;20041;-60
2023/04/13 09:21:23;;;;;;;10.52;2.85;;;11.50;99.90;;;;;;5042539;28;20051;-61
2023/04/13 09:23:57;;;;;;;7.05;1.80;;;11.50;99.90;;;;;;5041941;28;20496;-60
2023/04/13 09:26:23;;;;;;;7.75;2.20;;;11.50;99.90;;;;;;5036213;28;20481;-61
2023/04/13 09:28:54;;;;;;;6.05;2.08;;;11.50;99.90;;;;;;5048119;28;20084;-60
2023/04/13 09:31:19;;;;;;;7.97;2.13;;;11.20;99.90;;;;;;5042238;28;20051;-59
2023/04/13 09:33:47;;;;;;;7.30;1.85;;;11.10;99.90;;;;;;5042298;28;20045;-60
2023/04/13 09:36:15;;;;;;;12.23;2.45;;;11.10;99.90;;;;;;5038693;28;20382;-60
2023/04/13 09:38:49;;;;;;;9.10;1.90;;;11.00;99.90;;;;;;5041014;28;20095;-60
2023/04/13 09:41:15;;;;;;;8.43;1.83;;;10.90;99.90;;;;;;5041676;28;20037;-60
2023/04/13 09:43:40;;;;;;;9.02;2.25;;;10.90;99.90;;;;;;5049723;28;20037;-60
2023/04/13 09:46:12;;;;;;;11.32;2.15;;;11.00;99.90;;;;;;5047635;28;20523;-60
2023/04/13 09:48:38;;;;;;;8.68;2.20;;;11.00;99.90;;;;;;5045730;28;20110;-60
2023/04/13 09:51:06;;;;;;;9.70;2.35;;;11.10;99.90;;;;;;5047112;28;20037;-60
2023/04/13 09:53:48;;;;;;;8.90;2.28;;;11.30;99.90;;;;;;5059233;28;20045;-60
2023/04/13 09:56:15;;;;;;;10.73;2.33;;;11.30;99.90;;;;;;5037373;28;20132;-60
2023/04/13 09:58:46;;;;;;;6.15;2.15;;;11.20;99.90;;;;;;5044947;28;20048;-60
2023/04/13 10:01:15;;;;;;;9.60;2.45;;;11.20;99.90;;;;;;5042974;28;20037;-60
2023/04/13 10:03:42;;;;;;;9.90;3.08;;;11.20;99.90;;;;;;5044248;28;20504;-60
2023/04/13 10:06:08;;;;;;;11.02;2.63;;;11.20;99.90;;;;;;5048090;28;20045;-60
2023/04/13 10:08:38;;;;;;;8.80;2.30;;;11.20;99.90;;;;;;5047305;28;20063;-60
2023/04/13 10:11:07;;;;;;;7.45;2.00;;;11.20;99.90;;;;;;5042123;28;20536;-60
2023/04/13 10:13:49;;;;;;;9.40;2.80;;;11.30;99.90;;;;;;5048651;28;20060;-60
2023/04/13 10:16:28;;;;;;;11.68;2.10;;;11.20;99.90;;;;;;5050912;28;20036;-60
2023/04/13 10:19:04;;;;;;;13.02;3.03;;;11.30;99.90;;;;;;5045098;28;20029;-60
2023/04/13 10:21:34;;;;;;;11.82;2.50;;;11.40;99.90;;;;;;5048631;28;20476;-60
2023/04/13 10:24:04;;;;;;;11.93;2.20;;;11.40;99.90;;;;;;5049644;28;20054;-60
2023/04/13 10:26:34;;;;;;;5.22;1.60;;;11.40;99.90;;;;;;5046591;28;20029;-60
2023/04/13 10:29:01;;;;;;;11.85;2.25;;;11.50;99.90;;;;;;5041476;28;20037;-60
2023/04/13 10:31:46;;;;;;;11.52;2.38;;;11.60;99.90;;;;;;5043618;28;20045;-60
2023/04/13 10:34:29;;;;;;;11.00;2.65;;;11.60;99.90;;;;;;5043921;28;20122;-60
2023/04/13 10:37:02;;;;;;;16.50;3.10;;;11.60;99.90;;;;;;5044457;28;20044;-60
2023/04/13 10:39:31;;;;;;;10.68;3.10;;;11.60;99.90;;;;;;5044483;28;20052;-60
2023/04/13 10:42:07;;;;;;;9.35;2.33;;;11.70;99.90;;;;;;5046935;28;20115;-60
2023/04/13 10:44:41;;;;;;;10.85;2.42;;;11.70;99.90;;;;;;5046428;28;20488;-60
2023/04/13 10:47:07;;;;;;;7.20;2.17;;;11.50;99.90;;;;;;5042852;28;20512;-59
2023/04/13 10:49:33;;;;;;;8.85;2.05;;;11.40;99.90;;;;;;5045890;28;20569;-59
2023/04/13 10:51:58;;;;;;;10.07;2.47;;;11.50;99.90;;;;;;5044537;28;20421;-60
2023/04/13 10:54:28;;;;;;;10.65;2.55;;;11.50;99.90;;;;;;5044108;28;20041;-60
2023/04/13 10:56:59;;;;;;;9.50;2.13;;;11.70;99.90;;;;;;5044737;28;20037;-60
2023/04/13 10:59:48;;;;;;;7.93;2.10;;;11.70;99.90;;;;;;5050311;28;20056;-60
2023/04/13 11:02:16;;;;;;;11.70;2.60;;;11.80;99.90;;;;;;5047305;28;20174;-60
2023/04/13 11:04:46;;;;;;;9.75;2.47;;;11.90;99.90;;;;;;5045552;28;20476;-60
2023/04/13 11:07:22;;;;;;;10.15;2.20;;;11.90;99.90;;;;;;5044197;28;20064;-60
2023/04/13 11:09:49;;;;;;;12.32;2.50;;;11.80;99.90;;;;;;5046127;28;20048;-60
2023/04/13 11:12:16;;;;;;;12.82;2.20;;;11.90;99.90;;;;;;5048342;28;20157;-60
2023/04/13 11:14:49;;;;;;;7.60;2.00;;;12.00;99.90;;;;;;5045092;28;20040;-60
2023/04/13 11:17:16;;;;;;;5.05;2.00;;;12.00;99.90;;;;;;5038891;28;20116;-60
2023/04/13 11:19:48;;;;;;;10.63;2.00;;;12.20;99.90;;;;;;5047454;28;20028;-60
2023/04/13 11:22:17;;;;;;;7.82;2.17;;;12.20;99.90;;;;;;5065141;28;20050;-59
2023/04/13 11:24:44;;;;;;;10.82;2.30;;;12.30;99.90;;;;;;5048300;28;20041;-60
2023/04/13 11:27:23;;;;;;;9.85;2.22;;;12.30;99.90;;;;;;5039812;28;20061;-60
2023/04/13 11:30:05;;;;;;;8.82;2.15;;;12.10;99.90;;;;;;5053564;28;20116;-60
2023/04/13 11:32:36;;;;;;;10.20;2.10;;;12.10;99.90;;;;;;5046586;28;20644;-60
2023/04/13 11:35:07;;;;;;;12.95;2.22;;;12.20;99.90;;;;;;5043849;28;20170;-60
2023/04/13 11:37:38;;;;;;;9.73;2.70;;;12.30;99.90;;;;;;5045887;28;20451;-59
2023/04/13 11:40:20;;;;;;;10.50;1.80;;;12.50;99.90;;;;;;5050656;28;20064;-58
2023/04/13 11:42:52;;;;;;;9.32;1.92;;;12.70;99.90;;;;;;5053602;28;20033;-60
2023/04/13 11:45:19;;;;;;;9.90;1.98;;;12.70;99.90;;;;;;5051462;28;20197;-60
2023/04/13 11:47:46;;;;;;;5.95;1.80;;;12.50;99.90;;;;;;5055369;28;20166;-60
2023/04/13 11:50:13;;;;;;;8.77;2.33;;;12.50;99.90;;;;;;5050471;28;20295;-60
2023/04/13 11:52:40;;;;;;;9.35;2.47;;;12.50;99.90;;;;;;5045651;28;20030;-59
2023/04/13 11:55:06;;;;;;;9.63;1.90;;;12.50;99.90;;;;;;5048371;28;20028;-60
2023/04/13 11:57:33;;;;;;;10.00;2.22;;;12.60;99.90;;;;;;5046384;28;20029;-60
2023/04/13 11:59:59;;;;;;;7.63;1.60;;;12.60;99.90;;;;;;5051759;28;20029;-59
2023/04/13 12:02:29;;;;;;;7.10;1.85;;;12.60;99.90;;;;;;5050203;28;20036;-60
2023/04/13 12:04:55;;;;;;;8.00;1.80;;;12.70;99.90;;;;;;5065469;28;20116;-59
2023/04/13 12:07:21;;;;;;;13.85;2.42;;;12.70;99.90;;;;;;5054217;28;21763;-59
2023/04/13 12:09:50;;;;;;;9.60;2.08;;;12.80;99.90;;;;;;5054277;28;20608;-60
2023/04/13 12:12:23;;;;;;;10.48;2.25;;;12.90;99.90;;;;;;5053629;28;20048;-59
2023/04/13 12:14:56;;;;;;;;;;;12.90;99.90;;;;;;5065608;28;20052;-59
2023/04/13 12:17:27;;;;;;;10.45;1.85;;;13.20;99.90;;;;;;5041661;28;19928;-59
2023/04/13 12:19:55;;;;;;;8.95;1.88;;;13.30;99.90;;;;;;5063015;28;20507;-59
2023/04/13 12:22:20;;;;;;;10.00;2.22;;;13.20;99.90;;;;;;5037943;28;20507;-59
2023/04/13 12:24:46;;;;;;;13.07;2.20;;;13.00;99.90;;;;;;5048174;28;20040;-59
2023/04/13 12:27:12;;;;;;;12.60;2.22;;;12.90;99.90;;;;;;5050958;28;20037;-59
2023/04/13 12:29:38;;;;;;;13.20;2.20;;;12.90;99.90;;;;;;5042119;28;20112;-60
2023/04/13 12:32:15;;;;;;;11.82;2.33;;;13.00;99.90;;;;;;5041583;28;20048;-59
2023/04/13 12:34:42;;;;;;;10.38;2.05;;;13.30;99.90;;;;;;5039045;28;20037;-60
2023/04/13 12:37:09;;;;;;;13.05;2.50;;;13.40;99.90;;;;;;5045138;28;20033;-59
2023/04/13 12:39:34;;;;;;;8.13;2.45;;;13.50;99.90;;;;;;5054796;28;20043;-58
2023/04/13 12:42:00;;;;;;;9.38;2.03;;;13.60;99.90;;;;;;5056007;28;20123;-59
2023/04/13 12:44:26;;;;;;;8.30;2.03;;;13.60;99.90;;;;;;5053626;28;20131;-58
2023/04/13 12:46:51;;;;;;;12.90;2.17;;;13.50;99.90;;;;;;5051365;28;20037;-58
2023/04/13 12:49:17;;;;;;;9.48;2.20;;;13.50;99.90;;;;;;5054971;28;20564;-59
2023/04/13 12:51:42;;;;;;;8.38;2.25;;;13.40;99.90;;;;;;5047897;28;20754;-60
2023/04/13 12:54:12;;;;;;;6.30;1.88;;;13.30;99.90;;;;;;5045229;28;20076;-59
2023/04/13 12:56:41;;;;;;;6.93;1.77;;;13.30;99.90;;;;;;5048862;28;20121;-59